sensor_id;sensor_type;location;lat;lon;timestamp;P1;durP1;ratioP1;P2;durP2;ratioP2
63959;SDS011;50136;51.374;0.096;2023-05-07T00:00:50;15.77;;;9.27;;
63959;SDS011;50136;51.374;0.096;2023-05-07T00:10:52;19.13;;;10.57;;
63959;SDS011;50136;51.374;0.096;2023-05-07T00:20:56;21.92;;;11.57;;
63959;SDS011;50136;51.374;0.096;2023-05-07T00:30:58;15.43;;;9.38;;
63959;SDS011;50136;51.374;0.096;2023-05-07T00:41:01;24.73;;;9.52;;
63959;SDS011;50136;51.374;0.096;2023-05-07T00:51:03;20.67;;;13.93;;
63959;SDS011;50136;51.374;0.096;2023-05-07T01:01:07;20.30;;;11.02;;
63959;SDS011;50136;51.374;0.096;2023-05-07T01:11:09;19.70;;;10.13;;
63959;SDS011;50136;51.374;0.096;2023-05-07T01:21:13;14.88;;;10.63;;
63959;SDS011;50136;51.374;0.096;2023-05-07T01:31:20;12.23;;;8.90;;
63959;SDS011;50136;51.374;0.096;2023-05-07T01:41:23;11.05;;;7.55;;
63959;SDS011;50136;51.374;0.096;2023-05-07T01:51:26;9.75;;;7.85;;
63959;SDS011;50136;51.374;0.096;2023-05-07T02:01:28;9.30;;;6.57;;
63959;SDS011;50136;51.374;0.096;2023-05-07T02:11:32;7.68;;;6.43;;
63959;SDS011;50136;51.374;0.096;2023-05-07T02:21:34;7.68;;;6.60;;
63959;SDS011;50136;51.374;0.096;2023-05-07T02:31:37;8.77;;;7.22;;
63959;SDS011;50136;51.374;0.096;2023-05-07T02:41:39;9.18;;;7.43;;
63959;SDS011;50136;51.374;0.096;2023-05-07T02:51:43;9.93;;;7.05;;
63959;SDS011;50136;51.374;0.096;2023-05-07T03:01:44;8.07;;;7.25;;
63959;SDS011;50136;51.374;0.096;2023-05-07T03:11:48;8.60;;;7.68;;
63959;SDS011;50136;51.374;0.096;2023-05-07T03:21:50;8.60;;;6.15;;
63959;SDS011;50136;51.374;0.096;2023-05-07T03:31:53;9.30;;;6.40;;
63959;SDS011;50136;51.374;0.096;2023-05-07T03:41:56;8.98;;;6.38;;
63959;SDS011;50136;51.374;0.096;2023-05-07T03:52:00;7.47;;;6.68;;
63959;SDS011;50136;51.374;0.096;2023-05-07T04:02:02;10.10;;;7.00;;
63959;SDS011;50136;51.374;0.096;2023-05-07T04:12:07;6.78;;;5.88;;
63959;SDS011;50136;51.374;0.096;2023-05-07T04:22:09;9.73;;;6.53;;
63959;SDS011;50136;51.374;0.096;2023-05-07T04:32:12;9.90;;;7.05;;
63959;SDS011;50136;51.374;0.096;2023-05-07T04:42:15;9.35;;;8.00;;
63959;SDS011;50136;51.374;0.096;2023-05-07T04:52:18;9.05;;;5.82;;
63959;SDS011;50136;51.374;0.096;2023-05-07T05:02:20;9.43;;;6.63;;
63959;SDS011;50136;51.374;0.096;2023-05-07T05:12:24;9.00;;;7.05;;
63959;SDS011;50136;51.374;0.096;2023-05-07T05:22:25;11.43;;;8.43;;
63959;SDS011;50136;51.374;0.096;2023-05-07T05:32:29;10.77;;;8.00;;
63959;SDS011;50136;51.374;0.096;2023-05-07T05:42:31;14.25;;;9.90;;
63959;SDS011;50136;51.374;0.096;2023-05-07T05:52:34;12.68;;;9.07;;
63959;SDS011;50136;51.374;0.096;2023-05-07T06:02:36;10.43;;;8.30;;
63959;SDS011;50136;51.374;0.096;2023-05-07T06:12:40;17.23;;;10.10;;
63959;SDS011;50136;51.374;0.096;2023-05-07T06:22:42;10.75;;;7.75;;
63959;SDS011;50136;51.374;0.096;2023-05-07T06:32:45;12.25;;;9.00;;
63959;SDS011;50136;51.374;0.096;2023-05-07T06:42:48;10.73;;;8.38;;
63959;SDS011;50136;51.374;0.096;2023-05-07T06:52:51;11.55;;;7.13;;
63959;SDS011;50136;51.374;0.096;2023-05-07T07:02:53;11.10;;;7.03;;
63959;SDS011;50136;51.374;0.096;2023-05-07T07:12:57;11.00;;;7.53;;
63959;SDS011;50136;51.374;0.096;2023-05-07T07:22:59;11.38;;;8.32;;
63959;SDS011;50136;51.374;0.096;2023-05-07T07:33:02;9.45;;;6.97;;
63959;SDS011;50136;51.374;0.096;2023-05-07T07:43:05;12.15;;;7.15;;
63959;SDS011;50136;51.374;0.096;2023-05-07T07:53:08;10.75;;;7.93;;
63959;SDS011;50136;51.374;0.096;2023-05-07T08:03:10;9.60;;;6.50;;
63959;SDS011;50136;51.374;0.096;2023-05-07T08:13:14;11.35;;;7.18;;
63959;SDS011;50136;51.374;0.096;2023-05-07T08:23:16;11.13;;;7.53;;
63959;SDS011;50136;51.374;0.096;2023-05-07T08:33:28;10.75;;;7.50;;
63959;SDS011;50136;51.374;0.096;2023-05-07T08:43:30;13.23;;;9.23;;
63959;SDS011;50136;51.374;0.096;2023-05-07T08:53:35;13.30;;;9.13;;
63959;SDS011;50136;51.374;0.096;2023-05-07T09:03:41;14.15;;;10.07;;
63959;SDS011;50136;51.374;0.096;2023-05-07T09:13:47;15.07;;;10.65;;
63959;SDS011;50136;51.374;0.096;2023-05-07T09:23:50;9.30;;;6.57;;
63959;SDS011;50136;51.374;0.096;2023-05-07T09:33:54;7.03;;;5.78;;
63959;SDS011;50136;51.374;0.096;2023-05-07T09:43:56;5.63;;;4.60;;
63959;SDS011;50136;51.374;0.096;2023-05-07T09:54:00;4.68;;;3.47;;
63959;SDS011;50136;51.374;0.096;2023-05-07T10:04:03;4.25;;;3.35;;
63959;SDS011;50136;51.374;0.096;2023-05-07T10:14:08;4.72;;;3.55;;
63959;SDS011;50136;51.374;0.096;2023-05-07T10:24:13;5.93;;;4.50;;
63959;SDS011;50136;51.374;0.096;2023-05-07T10:34:23;7.40;;;4.63;;
63959;SDS011;50136;51.374;0.096;2023-05-07T10:44:30;4.75;;;4.07;;
63959;SDS011;50136;51.374;0.096;2023-05-07T10:54:34;4.50;;;3.63;;
63959;SDS011;50136;51.374;0.096;2023-05-07T11:04:38;3.50;;;2.85;;
63959;SDS011;50136;51.374;0.096;2023-05-07T11:14:44;4.43;;;3.67;;
63959;SDS011;50136;51.374;0.096;2023-05-07T11:24:47;4.80;;;4.13;;
63959;SDS011;50136;51.374;0.096;2023-05-07T11:34:52;5.10;;;3.95;;
63959;SDS011;50136;51.374;0.096;2023-05-07T11:44:54;4.80;;;3.92;;
63959;SDS011;50136;51.374;0.096;2023-05-07T11:54:58;6.88;;;4.57;;
63959;SDS011;50136;51.374;0.096;2023-05-07T12:05:01;5.88;;;4.75;;
63959;SDS011;50136;51.374;0.096;2023-05-07T12:15:04;5.25;;;4.00;;
63959;SDS011;50136;51.374;0.096;2023-05-07T12:25:07;5.40;;;3.70;;
63959;SDS011;50136;51.374;0.096;2023-05-07T12:35:12;12.00;;;6.18;;
63959;SDS011;50136;51.374;0.096;2023-05-07T12:45:15;5.75;;;4.80;;
63959;SDS011;50136;51.374;0.096;2023-05-07T12:55:19;5.40;;;4.60;;
63959;SDS011;50136;51.374;0.096;2023-05-07T13:05:21;6.15;;;4.20;;
63959;SDS011;50136;51.374;0.096;2023-05-07T13:15:25;5.15;;;4.63;;
63959;SDS011;50136;51.374;0.096;2023-05-07T13:25:27;5.32;;;3.58;;
63959;SDS011;50136;51.374;0.096;2023-05-07T13:35:30;5.28;;;4.10;;
63959;SDS011;50136;51.374;0.096;2023-05-07T13:45:32;4.38;;;3.83;;
63959;SDS011;50136;51.374;0.096;2023-05-07T13:55:35;4.35;;;2.72;;
63959;SDS011;50136;51.374;0.096;2023-05-07T14:05:37;4.43;;;3.28;;
63959;SDS011;50136;51.374;0.096;2023-05-07T14:15:41;2.58;;;2.33;;
63959;SDS011;50136;51.374;0.096;2023-05-07T14:25:43;3.65;;;2.70;;
63959;SDS011;50136;51.374;0.096;2023-05-07T14:35:46;2.58;;;2.25;;
63959;SDS011;50136;51.374;0.096;2023-05-07T14:45:48;3.78;;;2.40;;
63959;SDS011;50136;51.374;0.096;2023-05-07T14:55:51;3.97;;;2.65;;
63959;SDS011;50136;51.374;0.096;2023-05-07T15:05:53;5.57;;;4.18;;
63959;SDS011;50136;51.374;0.096;2023-05-07T15:15:57;3.20;;;2.63;;
63959;SDS011;50136;51.374;0.096;2023-05-07T15:25:59;3.60;;;2.25;;
63959;SDS011;50136;51.374;0.096;2023-05-07T15:36:02;2.30;;;2.10;;
63959;SDS011;50136;51.374;0.096;2023-05-07T15:46:05;5.53;;;1.85;;
63959;SDS011;50136;51.374;0.096;2023-05-07T15:56:08;4.57;;;1.90;;
63959;SDS011;50136;51.374;0.096;2023-05-07T16:06:10;2.03;;;1.50;;
63959;SDS011;50136;51.374;0.096;2023-05-07T16:16:13;2.50;;;1.63;;
63959;SDS011;50136;51.374;0.096;2023-05-07T16:26:15;2.13;;;1.40;;
63959;SDS011;50136;51.374;0.096;2023-05-07T16:36:19;4.40;;;1.85;;
63959;SDS011;50136;51.374;0.096;2023-05-07T16:46:21;1.92;;;1.38;;
63959;SDS011;50136;51.374;0.096;2023-05-07T16:56:24;1.95;;;1.30;;
63959;SDS011;50136;51.374;0.096;2023-05-07T17:06:26;2.70;;;1.60;;
63959;SDS011;50136;51.374;0.096;2023-05-07T17:16:29;3.25;;;1.77;;
63959;SDS011;50136;51.374;0.096;2023-05-07T17:26:34;3.90;;;1.88;;
63959;SDS011;50136;51.374;0.096;2023-05-07T17:36:38;7.63;;;6.38;;
63959;SDS011;50136;51.374;0.096;2023-05-07T17:46:40;3.13;;;1.65;;
63959;SDS011;50136;51.374;0.096;2023-05-07T17:56:43;3.10;;;2.33;;
63959;SDS011;50136;51.374;0.096;2023-05-07T18:06:45;2.78;;;1.65;;
63959;SDS011;50136;51.374;0.096;2023-05-07T18:16:48;2.40;;;1.45;;
63959;SDS011;50136;51.374;0.096;2023-05-07T18:26:50;2.33;;;1.50;;
63959;SDS011;50136;51.374;0.096;2023-05-07T18:36:54;1.73;;;1.27;;
63959;SDS011;50136;51.374;0.096;2023-05-07T18:46:56;1.95;;;1.48;;
63959;SDS011;50136;51.374;0.096;2023-05-07T18:56:59;2.45;;;1.65;;
63959;SDS011;50136;51.374;0.096;2023-05-07T19:07:01;3.22;;;2.28;;
63959;SDS011;50136;51.374;0.096;2023-05-07T19:17:04;5.00;;;3.03;;
63959;SDS011;50136;51.374;0.096;2023-05-07T19:27:06;15.80;;;7.90;;
63959;SDS011;50136;51.374;0.096;2023-05-07T19:37:10;8.48;;;3.10;;
63959;SDS011;50136;51.374;0.096;2023-05-07T19:47:12;9.23;;;5.20;;
63959;SDS011;50136;51.374;0.096;2023-05-07T19:57:15;5.10;;;3.33;;
63959;SDS011;50136;51.374;0.096;2023-05-07T20:07:17;7.28;;;4.60;;
63959;SDS011;50136;51.374;0.096;2023-05-07T20:17:20;7.25;;;3.22;;
63959;SDS011;50136;51.374;0.096;2023-05-07T20:27:22;8.32;;;3.50;;
63959;SDS011;50136;51.374;0.096;2023-05-07T20:37:26;8.90;;;4.45;;
63959;SDS011;50136;51.374;0.096;2023-05-07T20:47:30;14.52;;;6.72;;
63959;SDS011;50136;51.374;0.096;2023-05-07T20:57:33;12.77;;;7.45;;
63959;SDS011;50136;51.374;0.096;2023-05-07T21:07:35;13.52;;;8.32;;
63959;SDS011;50136;51.374;0.096;2023-05-07T21:17:38;14.70;;;8.55;;
63959;SDS011;50136;51.374;0.096;2023-05-07T21:27:40;14.65;;;9.43;;
63959;SDS011;50136;51.374;0.096;2023-05-07T21:37:44;14.43;;;8.80;;
63959;SDS011;50136;51.374;0.096;2023-05-07T21:47:46;23.77;;;11.65;;
63959;SDS011;50136;51.374;0.096;2023-05-07T21:57:49;21.05;;;10.70;;
63959;SDS011;50136;51.374;0.096;2023-05-07T22:08:04;18.85;;;10.90;;
63959;SDS011;50136;51.374;0.096;2023-05-07T22:18:08;21.65;;;10.95;;
63959;SDS011;50136;51.374;0.096;2023-05-07T22:28:10;16.65;;;10.13;;
63959;SDS011;50136;51.374;0.096;2023-05-07T22:38:13;17.75;;;10.80;;
63959;SDS011;50136;51.374;0.096;2023-05-07T22:48:15;22.55;;;10.95;;
63959;SDS011;50136;51.374;0.096;2023-05-07T22:58:18;20.50;;;10.65;;
63959;SDS011;50136;51.374;0.096;2023-05-07T23:08:20;17.48;;;9.82;;
63959;SDS011;50136;51.374;0.096;2023-05-07T23:18:23;23.00;;;11.55;;
63959;SDS011;50136;51.374;0.096;2023-05-07T23:28:25;11.32;;;8.18;;
63959;SDS011;50136;51.374;0.096;2023-05-07T23:38:29;17.08;;;9.65;;
63959;SDS011;50136;51.374;0.096;2023-05-07T23:48:31;15.85;;;9.50;;
63959;SDS011;50136;51.374;0.096;2023-05-07T23:58:34;14.77;;;9.02;;
